createdAt,value
2018-11-22T12:17:24.681Z,39.33
2018-11-22T12:19:53.363Z,45.00
2018-11-22T12:22:22.243Z,41.33
2018-11-22T12:25:15.544Z,38.70
2018-11-22T12:27:45.491Z,39.87
2018-11-22T12:30:18.441Z,40.83
2018-11-22T12:32:52.445Z,38.67
2018-11-22T12:35:31.991Z,44.00
2018-11-22T12:38:06.112Z,51.33
2018-11-22T12:40:35.743Z,39.13
2018-11-22T12:43:14.823Z,36.27
2018-11-22T12:45:49.491Z,39.10
2018-11-22T12:48:21.851Z,38.23
2018-11-22T12:50:50.555Z,35.60
2018-11-22T12:53:20.613Z,37.33
2018-11-22T12:55:50.318Z,37.40
2018-11-22T12:58:26.692Z,41.03
2018-11-22T13:00:55.685Z,36.70
2018-11-22T13:03:29.404Z,37.07
2018-11-22T13:06:02.755Z,33.20
2018-11-22T13:08:31.387Z,32.63
2018-11-22T13:11:00.074Z,39.47
2018-11-22T13:13:28.825Z,35.33
2018-11-22T13:15:57.448Z,32.93
2018-11-22T13:18:26.383Z,37.40
2018-11-22T13:20:56.925Z,38.63
2018-11-22T13:23:31.910Z,39.50
2018-11-22T13:26:01.662Z,36.93
2018-11-22T13:28:31.561Z,39.73
2018-11-22T13:31:00.206Z,41.67
2018-11-22T13:33:29.744Z,47.00
2018-11-22T13:35:58.450Z,38.70
2018-11-22T13:38:27.600Z,38.20
2018-11-22T13:40:56.252Z,40.90
2018-11-22T13:43:29.794Z,42.77
2018-11-22T13:45:58.649Z,52.57
2018-11-22T13:48:28.384Z,44.90
2018-11-22T13:50:56.993Z,42.50
2018-11-22T13:53:25.690Z,37.10
2018-11-22T13:55:54.442Z,36.97
2018-11-22T13:58:24.333Z,40.90
2018-11-22T14:00:53.082Z,38.03
2018-11-22T14:03:23.889Z,36.33
2018-11-22T14:05:53.755Z,36.60
2018-11-22T14:08:23.690Z,36.00
2018-11-22T14:10:52.801Z,36.97
2018-11-22T14:13:21.056Z,32.83
2018-11-22T14:15:49.836Z,36.43
2018-11-22T14:18:30.996Z,36.10
2018-11-22T14:21:03.869Z,33.17
2018-11-22T14:23:32.564Z,37.27
2018-11-22T14:26:07.558Z,33.17
2018-11-22T14:28:38.050Z,37.97
2018-11-22T14:31:20.698Z,37.30
2018-11-22T14:33:49.390Z,39.23
2018-11-22T14:36:23.596Z,38.43
2018-11-22T14:38:56.601Z,35.00
2018-11-22T14:41:25.323Z,46.13
2018-11-22T14:43:54.019Z,39.40
2018-11-22T14:46:33.506Z,39.93
2018-11-22T14:49:04.174Z,35.80
2018-11-22T14:51:39.947Z,39.27
2018-11-22T14:54:11.652Z,30.30
2018-11-22T14:56:40.374Z,35.77
2018-11-22T14:59:14.548Z,37.63
2018-11-22T15:01:45.072Z,35.90
2018-11-22T15:04:27.646Z,37.10
2018-11-22T15:06:56.535Z,39.50
2018-11-22T15:09:31.575Z,37.23
2018-11-22T15:12:01.216Z,35.97
2018-11-22T15:14:43.349Z,33.83
2018-11-22T15:17:12.081Z,41.30
2018-11-22T15:19:40.751Z,39.40
2018-11-22T15:22:09.430Z,42.47
2018-11-22T15:24:38.160Z,43.07
2018-11-22T15:27:06.759Z,48.57
2018-11-22T15:29:35.437Z,58.90
2018-11-22T15:32:04.297Z,56.23
2018-11-22T15:34:38.759Z,51.47
2018-11-22T15:37:14.516Z,46.73
2018-11-22T15:39:49.153Z,38.93
2018-11-22T15:42:17.738Z,38.17
2018-11-22T15:44:58.077Z,43.67
2018-11-22T15:47:30.211Z,44.80
2018-11-22T15:50:06.172Z,52.20
2018-11-22T15:52:35.833Z,48.43
2018-11-22T15:55:04.867Z,50.43
2018-11-22T15:57:33.637Z,35.03
2018-11-22T16:00:02.298Z,37.57
2018-11-22T16:02:31.017Z,38.37
2018-11-22T16:05:01.775Z,40.40
2018-11-22T16:07:34.410Z,42.43
2018-11-22T16:10:26.357Z,44.07
2018-11-22T16:12:50.413Z,46.77
2018-11-22T16:15:25.445Z,59.27
2018-11-22T16:17:54.481Z,44.73
2018-11-22T16:20:28.834Z,43.70
2018-11-22T16:22:57.320Z,50.10
2018-11-22T16:25:29.276Z,49.60
2018-11-22T16:28:00.747Z,53.57
2018-11-22T16:30:35.613Z,54.33
2018-11-22T16:33:12.364Z,54.47
2018-11-22T16:35:42.943Z,40.93
2018-11-22T16:38:11.533Z,39.50
2018-11-22T16:40:40.255Z,38.97
2018-11-22T16:43:16.487Z,36.80
2018-11-22T16:45:47.083Z,43.03
2018-11-22T16:48:15.955Z,37.13
2018-11-22T16:50:46.557Z,39.30
2018-11-22T16:53:23.278Z,35.23
2018-11-22T16:55:55.354Z,40.93
2018-11-22T16:58:24.069Z,44.23
2018-11-22T17:00:53.970Z,38.20
2018-11-22T17:03:24.686Z,42.93
2018-11-22T17:05:53.364Z,40.83
2018-11-22T17:08:22.985Z,54.90
2018-11-22T17:13:51.210Z,48.20
2018-11-22T17:16:43.270Z,49.43
2018-11-22T17:19:13.029Z,49.00
2018-11-22T17:21:41.656Z,48.67
2018-11-22T17:24:10.372Z,49.77
2018-11-22T17:26:39.013Z,57.97
2018-11-22T17:29:09.727Z,52.90
2018-11-22T17:31:51.108Z,52.43
2018-11-22T17:34:19.972Z,50.23
2018-11-22T17:37:00.218Z,47.50
2018-11-22T17:39:31.594Z,53.27
2018-11-22T17:42:00.664Z,52.07
2018-11-22T17:44:37.671Z,42.93
2018-11-22T17:47:09.909Z,40.63
2018-11-22T17:49:38.527Z,35.97
2018-11-22T17:52:07.487Z,41.70
2018-11-22T17:54:42.205Z,40.50
2018-11-22T17:57:12.741Z,39.80
2018-11-22T17:59:42.307Z,39.53
2018-11-22T18:02:15.099Z,43.13
2018-11-22T18:04:45.616Z,46.17
2018-11-22T18:07:26.327Z,52.57
2018-11-22T18:09:57.247Z,45.97
2018-11-22T18:12:30.330Z,51.27
2018-11-22T18:14:59.098Z,47.33
2018-11-22T18:17:27.902Z,46.77
2018-11-22T18:19:56.877Z,46.83
2018-11-22T18:22:31.893Z,48.70
2018-11-22T18:25:06.967Z,47.73
2018-11-22T18:27:47.841Z,51.97
2018-11-22T18:30:20.696Z,45.37
2018-11-22T18:32:50.594Z,55.40
2018-11-22T18:35:19.147Z,52.73
2018-11-22T18:37:48.710Z,54.30
2018-11-22T18:40:18.561Z,51.30
2018-11-22T18:42:56.489Z,48.57
2018-11-22T18:45:31.241Z,48.40
2018-11-22T18:48:00.532Z,42.27
2018-11-22T18:50:31.252Z,51.83
2018-11-22T18:53:03.484Z,46.33
2018-11-22T18:55:47.987Z,51.03
2018-11-22T18:58:16.845Z,49.83
2018-11-22T19:00:50.360Z,42.43
2018-11-22T19:03:19.935Z,45.53
2018-11-22T19:05:49.728Z,43.23
2018-11-22T19:08:18.515Z,47.03
2018-11-22T19:10:47.167Z,42.30
2018-11-22T19:13:16.044Z,40.43
2018-11-22T19:15:50.684Z,42.43
2018-11-22T19:18:19.319Z,46.63
2018-11-22T19:20:55.990Z,40.37
2018-11-22T19:23:24.464Z,43.70
2018-11-22T19:25:53.050Z,46.30
2018-11-22T19:28:22.661Z,45.70
2018-11-22T19:30:51.286Z,46.10
2018-11-22T19:33:22.113Z,51.10
2018-11-22T19:35:52.378Z,52.50
2018-11-22T19:38:21.129Z,45.83
2018-11-22T19:40:51.731Z,45.17
2018-11-22T19:43:21.165Z,46.57
2018-11-22T19:46:00.016Z,50.03
2018-11-22T19:48:32.811Z,52.03
2018-11-22T19:51:05.575Z,47.00
2018-11-22T19:53:31.931Z,47.07
2018-11-22T19:56:08.643Z,48.47
2018-11-22T19:58:37.179Z,50.10
2018-11-22T20:01:09.563Z,42.40
2018-11-22T20:03:38.300Z,43.63
2018-11-22T20:06:09.693Z,51.03
2018-11-22T20:08:45.195Z,49.53
2018-11-22T20:11:17.019Z,49.93
2018-11-22T20:13:45.796Z,45.23
2018-11-22T20:16:20.238Z,47.97
2018-11-22T20:18:48.779Z,44.63
2018-11-22T20:21:31.335Z,42.87
2018-11-22T20:24:02.805Z,49.60
2018-11-22T20:26:34.901Z,42.97
2018-11-22T20:29:04.123Z,43.40
2018-11-22T20:31:39.394Z,47.40
2018-11-22T20:34:07.959Z,48.63
2018-11-22T20:36:40.011Z,50.50
2018-11-22T20:39:22.485Z,51.17
2018-11-22T20:41:51.411Z,44.20
2018-11-22T20:44:22.197Z,44.10
2018-11-22T20:46:51.923Z,43.87
2018-11-22T20:49:21.058Z,46.27
2018-11-22T20:51:49.701Z,41.63
2018-11-22T20:54:18.481Z,50.83
2018-11-22T20:56:47.062Z,43.80
2018-11-22T20:59:15.797Z,40.30
2018-11-22T21:01:44.538Z,43.77
2018-11-22T21:04:13.092Z,45.67
2018-11-22T21:06:42.397Z,45.37
2018-11-22T21:09:12.174Z,47.73
2018-11-22T21:11:56.788Z,40.40
2018-11-22T21:14:31.781Z,40.47
2018-11-22T21:17:04.123Z,44.07
2018-11-22T21:19:38.257Z,40.10
2018-11-22T21:22:13.408Z,47.27
2018-11-22T21:24:44.190Z,42.97
2018-11-22T21:27:13.131Z,45.03
2018-11-22T21:29:41.859Z,44.83
2018-11-22T21:32:16.393Z,39.80
2018-11-22T21:34:52.103Z,39.13
2018-11-22T21:37:21.024Z,36.63
2018-11-22T21:39:49.660Z,40.63
2018-11-22T21:42:23.980Z,43.03
2018-11-22T21:44:53.554Z,40.87
2018-11-22T21:47:33.505Z,38.60
2018-11-22T21:50:09.612Z,42.27
2018-11-22T21:52:38.551Z,43.30
2018-11-22T21:55:10.408Z,44.20
2018-11-22T21:57:53.860Z,46.73
2018-11-22T22:00:33.499Z,41.10
2018-11-22T22:03:03.812Z,40.30
2018-11-22T22:05:35.631Z,40.90
2018-11-22T22:08:07.965Z,40.33
2018-11-22T22:10:43.707Z,39.93
2018-11-22T22:13:13.645Z,43.50
2018-11-22T22:15:42.499Z,40.90
2018-11-22T22:18:21.159Z,36.70
2018-11-22T22:20:45.685Z,38.57
2018-11-22T22:23:15.773Z,43.47
2018-11-22T22:25:45.581Z,41.87
2018-11-22T22:28:15.439Z,40.17
2018-11-22T22:30:59.959Z,40.77
2018-11-22T22:33:40.011Z,38.37
2018-11-22T22:36:13.363Z,38.60
2018-11-22T22:38:42.109Z,42.73
2018-11-22T22:41:14.679Z,39.40
2018-11-22T22:44:01.929Z,40.83
2018-11-22T22:46:32.793Z,42.40
2018-11-22T22:49:02.826Z,37.07
2018-11-22T22:51:32.449Z,37.00
2018-11-22T22:54:07.075Z,41.17
2018-11-22T22:56:37.605Z,42.33
2018-11-22T22:59:12.544Z,40.77
2018-11-22T23:01:41.177Z,38.77
2018-11-22T23:04:13.539Z,41.40
2018-11-22T23:06:42.447Z,45.37
2018-11-22T23:09:23.219Z,36.13
2018-11-22T23:11:51.845Z,38.23
2018-11-22T23:14:25.197Z,44.27
2018-11-22T23:16:53.819Z,42.80
2018-11-22T23:19:25.482Z,43.23
2018-11-22T23:21:55.337Z,38.60
2018-11-22T23:24:28.077Z,45.00
2018-11-22T23:26:56.803Z,45.97
2018-11-22T23:29:25.445Z,49.20
2018-11-22T23:31:54.935Z,45.73
2018-11-22T23:34:28.287Z,47.30
2018-11-22T23:37:07.668Z,44.40
2018-11-22T23:39:38.158Z,45.83
2018-11-22T23:42:12.589Z,39.53
2018-11-22T23:44:43.297Z,39.60
2018-11-22T23:47:12.858Z,41.77
2018-11-22T23:49:41.498Z,41.90
2018-11-22T23:52:12.171Z,49.33
2018-11-22T23:54:43.162Z,39.60
2018-11-22T23:57:19.607Z,41.60
2018-11-22T23:59:53.522Z,37.97
